Terminal Aerodrome Forecast
Issued by NWS Mt. Holly, NJ

Home | Current Version | Previous Version | Text Only | Print | Product List | Glossary On
Versions: 1 2 3 4 5 6 7 8 9 10 11 12 13 14 15 16 17 18 19 20 21 22 23 24 25 26
000
FTUS41 KPHI 262337
TAFACY
TAF
KACY 262337Z 2700/2724 28010KT P6SM SCT040
      TEMPO 2701/2704 BKN050
     FM270400 28006KT P6SM FEW250
     FM271500 23004KT P6SM BKN100
     FM271900 17006KT P6SM BKN035
      TEMPO 2719/2721 6SM -SHRA OVC025=

USA.gov is the U.S. government's official web portal to all federal, state and local government web resources and services.